sensor_id;sensor_type;location;lat;lon;timestamp;P1;durP1;ratioP1;P2;durP2;ratioP2
30127;SDS011;16942;53.196;6.592;2022-11-27T00:00:21;31.60;;;6.40;;
30127;SDS011;16942;53.196;6.592;2022-11-27T00:02:47;19.23;;;5.80;;
30127;SDS011;16942;53.196;6.592;2022-11-27T00:05:13;18.60;;;5.33;;
30127;SDS011;16942;53.196;6.592;2022-11-27T00:07:39;22.43;;;6.30;;
30127;SDS011;16942;53.196;6.592;2022-11-27T00:10:05;16.57;;;5.87;;
30127;SDS011;16942;53.196;6.592;2022-11-27T00:12:32;18.83;;;5.93;;
30127;SDS011;16942;53.196;6.592;2022-11-27T00:14:58;19.33;;;6.00;;
30127;SDS011;16942;53.196;6.592;2022-11-27T00:17:24;19.83;;;5.93;;
30127;SDS011;16942;53.196;6.592;2022-11-27T00:19:50;18.83;;;5.80;;
30127;SDS011;16942;53.196;6.592;2022-11-27T00:22:16;25.20;;;5.83;;
30127;SDS011;16942;53.196;6.592;2022-11-27T00:24:42;19.13;;;6.00;;
30127;SDS011;16942;53.196;6.592;2022-11-27T00:27:08;21.00;;;6.53;;
30127;SDS011;16942;53.196;6.592;2022-11-27T00:29:34;14.60;;;5.00;;
30127;SDS011;16942;53.196;6.592;2022-11-27T00:32:00;16.97;;;5.83;;
30127;SDS011;16942;53.196;6.592;2022-11-27T00:34:26;19.23;;;6.17;;
30127;SDS011;16942;53.196;6.592;2022-11-27T00:36:52;27.90;;;6.80;;
30127;SDS011;16942;53.196;6.592;2022-11-27T00:39:18;14.00;;;5.37;;
30127;SDS011;16942;53.196;6.592;2022-11-27T00:41:44;16.07;;;6.23;;
30127;SDS011;16942;53.196;6.592;2022-11-27T00:44:11;17.67;;;5.47;;
30127;SDS011;16942;53.196;6.592;2022-11-27T00:46:38;20.50;;;5.37;;
30127;SDS011;16942;53.196;6.592;2022-11-27T00:49:05;18.00;;;5.63;;
30127;SDS011;16942;53.196;6.592;2022-11-27T00:51:32;13.10;;;5.50;;
30127;SDS011;16942;53.196;6.592;2022-11-27T00:53:57;21.43;;;5.80;;
30127;SDS011;16942;53.196;6.592;2022-11-27T00:56:25;21.07;;;5.90;;
30127;SDS011;16942;53.196;6.592;2022-11-27T00:58:51;19.37;;;5.80;;
30127;SDS011;16942;53.196;6.592;2022-11-27T01:01:19;21.60;;;5.33;;
30127;SDS011;16942;53.196;6.592;2022-11-27T01:03:45;16.47;;;5.17;;
30127;SDS011;16942;53.196;6.592;2022-11-27T01:06:11;16.73;;;5.70;;
30127;SDS011;16942;53.196;6.592;2022-11-27T01:08:38;16.40;;;5.20;;
30127;SDS011;16942;53.196;6.592;2022-11-27T01:11:04;15.10;;;5.57;;
30127;SDS011;16942;53.196;6.592;2022-11-27T01:13:34;20.83;;;5.43;;
30127;SDS011;16942;53.196;6.592;2022-11-27T01:16:05;17.50;;;5.63;;
30127;SDS011;16942;53.196;6.592;2022-11-27T01:18:32;17.80;;;6.10;;
30127;SDS011;16942;53.196;6.592;2022-11-27T01:20:58;14.87;;;6.63;;
30127;SDS011;16942;53.196;6.592;2022-11-27T01:23:24;14.50;;;6.20;;
30127;SDS011;16942;53.196;6.592;2022-11-27T01:25:50;16.23;;;5.53;;
30127;SDS011;16942;53.196;6.592;2022-11-27T01:28:20;15.30;;;5.60;;
30127;SDS011;16942;53.196;6.592;2022-11-27T01:30:47;13.50;;;6.33;;
30127;SDS011;16942;53.196;6.592;2022-11-27T01:33:13;22.20;;;5.87;;
30127;SDS011;16942;53.196;6.592;2022-11-27T01:35:38;16.23;;;5.90;;
30127;SDS011;16942;53.196;6.592;2022-11-27T01:38:04;23.13;;;6.20;;
30127;SDS011;16942;53.196;6.592;2022-11-27T01:40:31;14.47;;;5.93;;
30127;SDS011;16942;53.196;6.592;2022-11-27T01:42:57;14.70;;;6.13;;
30127;SDS011;16942;53.196;6.592;2022-11-27T01:45:22;17.93;;;5.93;;
30127;SDS011;16942;53.196;6.592;2022-11-27T01:50:19;18.07;;;5.23;;
30127;SDS011;16942;53.196;6.592;2022-11-27T01:52:47;16.00;;;5.73;;
30127;SDS011;16942;53.196;6.592;2022-11-27T01:55:20;13.00;;;5.97;;
30127;SDS011;16942;53.196;6.592;2022-11-27T01:57:48;18.57;;;5.47;;
30127;SDS011;16942;53.196;6.592;2022-11-27T02:00:16;17.87;;;6.43;;
30127;SDS011;16942;53.196;6.592;2022-11-27T02:02:43;16.13;;;4.80;;
30127;SDS011;16942;53.196;6.592;2022-11-27T02:05:10;18.93;;;5.97;;
30127;SDS011;16942;53.196;6.592;2022-11-27T02:07:39;13.63;;;5.20;;
30127;SDS011;16942;53.196;6.592;2022-11-27T02:10:05;14.57;;;6.40;;
30127;SDS011;16942;53.196;6.592;2022-11-27T02:12:33;15.13;;;5.83;;
30127;SDS011;16942;53.196;6.592;2022-11-27T02:17:29;18.83;;;5.30;;
30127;SDS011;16942;53.196;6.592;2022-11-27T02:30:16;18.43;;;6.00;;
30127;SDS011;16942;53.196;6.592;2022-11-27T02:33:02;17.40;;;5.23;;
30127;SDS011;16942;53.196;6.592;2022-11-27T02:35:32;13.77;;;5.43;;
30127;SDS011;16942;53.196;6.592;2022-11-27T02:38:06;17.27;;;5.13;;
30127;SDS011;16942;53.196;6.592;2022-11-27T02:43:02;14.30;;;5.23;;
30127;SDS011;16942;53.196;6.592;2022-11-27T02:45:32;14.97;;;5.37;;
30127;SDS011;16942;53.196;6.592;2022-11-27T02:47:59;20.70;;;5.80;;
30127;SDS011;16942;53.196;6.592;2022-11-27T02:50:25;16.03;;;5.67;;
30127;SDS011;16942;53.196;6.592;2022-11-27T02:52:54;16.87;;;5.07;;
30127;SDS011;16942;53.196;6.592;2022-11-27T02:55:23;18.50;;;5.63;;
30127;SDS011;16942;53.196;6.592;2022-11-27T02:57:51;12.77;;;5.10;;
30127;SDS011;16942;53.196;6.592;2022-11-27T03:00:18;15.57;;;5.20;;
30127;SDS011;16942;53.196;6.592;2022-11-27T03:02:45;12.93;;;5.27;;
30127;SDS011;16942;53.196;6.592;2022-11-27T03:05:14;11.70;;;5.03;;
30127;SDS011;16942;53.196;6.592;2022-11-27T03:10:29;13.53;;;5.07;;
30127;SDS011;16942;53.196;6.592;2022-11-27T03:12:56;16.10;;;4.90;;
30127;SDS011;16942;53.196;6.592;2022-11-27T03:15:23;13.13;;;5.13;;
30127;SDS011;16942;53.196;6.592;2022-11-27T03:17:54;16.33;;;5.17;;
30127;SDS011;16942;53.196;6.592;2022-11-27T03:20:24;13.77;;;5.27;;
30127;SDS011;16942;53.196;6.592;2022-11-27T03:22:54;14.57;;;5.43;;
30127;SDS011;16942;53.196;6.592;2022-11-27T03:25:21;14.77;;;4.90;;
30127;SDS011;16942;53.196;6.592;2022-11-27T03:27:48;11.37;;;4.83;;
30127;SDS011;16942;53.196;6.592;2022-11-27T03:30:15;12.00;;;4.70;;
30127;SDS011;16942;53.196;6.592;2022-11-27T03:32:41;11.77;;;4.77;;
30127;SDS011;16942;53.196;6.592;2022-11-27T03:35:08;17.90;;;5.00;;
30127;SDS011;16942;53.196;6.592;2022-11-27T03:37:35;22.33;;;5.27;;
30127;SDS011;16942;53.196;6.592;2022-11-27T03:40:02;12.20;;;4.73;;
30127;SDS011;16942;53.196;6.592;2022-11-27T03:50:31;8.23;;;4.63;;
30127;SDS011;16942;53.196;6.592;2022-11-27T03:53:16;15.43;;;5.10;;
30127;SDS011;16942;53.196;6.592;2022-11-27T03:58:20;15.87;;;5.23;;
30127;SDS011;16942;53.196;6.592;2022-11-27T04:00:48;14.50;;;4.73;;
30127;SDS011;16942;53.196;6.592;2022-11-27T04:03:20;17.03;;;5.10;;
30127;SDS011;16942;53.196;6.592;2022-11-27T04:05:46;10.87;;;5.07;;
30127;SDS011;16942;53.196;6.592;2022-11-27T04:08:12;12.93;;;4.60;;
30127;SDS011;16942;53.196;6.592;2022-11-27T04:10:38;15.50;;;5.00;;
30127;SDS011;16942;53.196;6.592;2022-11-27T04:13:04;12.17;;;4.40;;
30127;SDS011;16942;53.196;6.592;2022-11-27T04:15:30;12.00;;;5.23;;
30127;SDS011;16942;53.196;6.592;2022-11-27T04:17:56;9.67;;;3.87;;
30127;SDS011;16942;53.196;6.592;2022-11-27T04:20:22;13.87;;;5.10;;
30127;SDS011;16942;53.196;6.592;2022-11-27T04:22:48;10.30;;;4.27;;
30127;SDS011;16942;53.196;6.592;2022-11-27T04:25:14;15.17;;;4.90;;
30127;SDS011;16942;53.196;6.592;2022-11-27T04:27:40;11.43;;;4.40;;
30127;SDS011;16942;53.196;6.592;2022-11-27T04:30:06;12.23;;;4.07;;
30127;SDS011;16942;53.196;6.592;2022-11-27T04:32:32;15.10;;;5.20;;
30127;SDS011;16942;53.196;6.592;2022-11-27T04:34:58;15.53;;;4.70;;
30127;SDS011;16942;53.196;6.592;2022-11-27T04:37:24;10.20;;;4.10;;
30127;SDS011;16942;53.196;6.592;2022-11-27T04:39:50;12.13;;;4.70;;
30127;SDS011;16942;53.196;6.592;2022-11-27T04:42:16;11.97;;;4.20;;
30127;SDS011;16942;53.196;6.592;2022-11-27T04:44:42;14.73;;;4.40;;
30127;SDS011;16942;53.196;6.592;2022-11-27T04:47:08;11.87;;;4.87;;
30127;SDS011;16942;53.196;6.592;2022-11-27T04:49:34;17.73;;;4.47;;
30127;SDS011;16942;53.196;6.592;2022-11-27T04:52:00;15.20;;;5.13;;
30127;SDS011;16942;53.196;6.592;2022-11-27T04:54:26;10.10;;;4.00;;
30127;SDS011;16942;53.196;6.592;2022-11-27T04:56:52;10.57;;;4.30;;
30127;SDS011;16942;53.196;6.592;2022-11-27T04:59:18;10.67;;;4.50;;
30127;SDS011;16942;53.196;6.592;2022-11-27T05:01:44;11.87;;;4.07;;
30127;SDS011;16942;53.196;6.592;2022-11-27T05:04:10;13.83;;;4.77;;
30127;SDS011;16942;53.196;6.592;2022-11-27T05:06:36;12.33;;;4.60;;
30127;SDS011;16942;53.196;6.592;2022-11-27T05:09:02;14.10;;;5.00;;
30127;SDS011;16942;53.196;6.592;2022-11-27T05:11:28;13.00;;;4.20;;
30127;SDS011;16942;53.196;6.592;2022-11-27T05:13:55;14.47;;;4.53;;
30127;SDS011;16942;53.196;6.592;2022-11-27T05:16:40;13.23;;;3.83;;
30127;SDS011;16942;53.196;6.592;2022-11-27T05:19:10;12.50;;;4.53;;
30127;SDS011;16942;53.196;6.592;2022-11-27T05:21:36;17.50;;;4.53;;
30127;SDS011;16942;53.196;6.592;2022-11-27T05:24:02;11.57;;;4.17;;
30127;SDS011;16942;53.196;6.592;2022-11-27T05:26:28;12.10;;;4.50;;
30127;SDS011;16942;53.196;6.592;2022-11-27T05:28:55;11.80;;;3.70;;
30127;SDS011;16942;53.196;6.592;2022-11-27T05:31:21;14.10;;;3.90;;
30127;SDS011;16942;53.196;6.592;2022-11-27T05:33:47;11.23;;;4.53;;
30127;SDS011;16942;53.196;6.592;2022-11-27T05:36:13;9.60;;;3.50;;
30127;SDS011;16942;53.196;6.592;2022-11-27T05:38:39;9.47;;;3.67;;
30127;SDS011;16942;53.196;6.592;2022-11-27T05:41:05;12.40;;;3.67;;
30127;SDS011;16942;53.196;6.592;2022-11-27T05:43:31;13.93;;;3.80;;
30127;SDS011;16942;53.196;6.592;2022-11-27T05:45:58;15.50;;;4.03;;
30127;SDS011;16942;53.196;6.592;2022-11-27T05:48:24;9.90;;;4.10;;
30127;SDS011;16942;53.196;6.592;2022-11-27T05:50:50;9.40;;;3.53;;
30127;SDS011;16942;53.196;6.592;2022-11-27T05:53:16;10.30;;;3.90;;
30127;SDS011;16942;53.196;6.592;2022-11-27T05:55:42;11.03;;;3.77;;
30127;SDS011;16942;53.196;6.592;2022-11-27T05:58:08;14.43;;;4.20;;
30127;SDS011;16942;53.196;6.592;2022-11-27T06:00:34;6.70;;;3.23;;
30127;SDS011;16942;53.196;6.592;2022-11-27T06:03:00;12.40;;;3.93;;
30127;SDS011;16942;53.196;6.592;2022-11-27T06:05:26;16.33;;;4.30;;
30127;SDS011;16942;53.196;6.592;2022-11-27T06:07:52;9.07;;;3.07;;
30127;SDS011;16942;53.196;6.592;2022-11-27T06:10:18;14.63;;;3.50;;
30127;SDS011;16942;53.196;6.592;2022-11-27T06:12:44;10.67;;;3.70;;
30127;SDS011;16942;53.196;6.592;2022-11-27T06:15:10;10.73;;;3.53;;
30127;SDS011;16942;53.196;6.592;2022-11-27T06:17:36;9.80;;;4.00;;
30127;SDS011;16942;53.196;6.592;2022-11-27T06:20:02;6.90;;;3.63;;
30127;SDS011;16942;53.196;6.592;2022-11-27T06:22:29;12.73;;;3.43;;
30127;SDS011;16942;53.196;6.592;2022-11-27T06:24:55;7.27;;;3.40;;
30127;SDS011;16942;53.196;6.592;2022-11-27T06:27:21;10.13;;;4.00;;
30127;SDS011;16942;53.196;6.592;2022-11-27T06:29:47;11.73;;;3.60;;
30127;SDS011;16942;53.196;6.592;2022-11-27T06:32:13;10.03;;;4.17;;
30127;SDS011;16942;53.196;6.592;2022-11-27T06:34:39;13.07;;;3.53;;
30127;SDS011;16942;53.196;6.592;2022-11-27T06:37:05;8.10;;;3.10;;
30127;SDS011;16942;53.196;6.592;2022-11-27T06:39:31;9.73;;;3.40;;
30127;SDS011;16942;53.196;6.592;2022-11-27T06:41:57;10.20;;;3.03;;
30127;SDS011;16942;53.196;6.592;2022-11-27T06:44:23;9.77;;;2.93;;
30127;SDS011;16942;53.196;6.592;2022-11-27T06:46:49;9.30;;;3.73;;
30127;SDS011;16942;53.196;6.592;2022-11-27T06:49:15;11.17;;;3.50;;
30127;SDS011;16942;53.196;6.592;2022-11-27T06:51:41;10.13;;;3.47;;
30127;SDS011;16942;53.196;6.592;2022-11-27T06:54:07;10.53;;;3.47;;
30127;SDS011;16942;53.196;6.592;2022-11-27T06:56:33;11.63;;;3.37;;
30127;SDS011;16942;53.196;6.592;2022-11-27T06:58:59;9.97;;;3.43;;
30127;SDS011;16942;53.196;6.592;2022-11-27T07:01:26;15.00;;;4.60;;
30127;SDS011;16942;53.196;6.592;2022-11-27T07:03:52;8.13;;;3.33;;
30127;SDS011;16942;53.196;6.592;2022-11-27T07:06:20;8.97;;;3.00;;
30127;SDS011;16942;53.196;6.592;2022-11-27T07:08:46;5.90;;;3.03;;
30127;SDS011;16942;53.196;6.592;2022-11-27T07:11:13;7.43;;;3.00;;
30127;SDS011;16942;53.196;6.592;2022-11-27T07:13:40;6.70;;;3.40;;
30127;SDS011;16942;53.196;6.592;2022-11-27T07:16:07;6.83;;;3.30;;
30127;SDS011;16942;53.196;6.592;2022-11-27T07:18:34;11.03;;;3.43;;
30127;SDS011;16942;53.196;6.592;2022-11-27T07:21:01;8.57;;;3.50;;
30127;SDS011;16942;53.196;6.592;2022-11-27T07:23:27;9.90;;;3.37;;
30127;SDS011;16942;53.196;6.592;2022-11-27T07:25:53;6.07;;;3.13;;
30127;SDS011;16942;53.196;6.592;2022-11-27T07:28:19;9.53;;;2.97;;
30127;SDS011;16942;53.196;6.592;2022-11-27T07:30:45;7.00;;;3.10;;
30127;SDS011;16942;53.196;6.592;2022-11-27T07:33:11;10.00;;;3.93;;
30127;SDS011;16942;53.196;6.592;2022-11-27T07:35:37;12.30;;;4.53;;
30127;SDS011;16942;53.196;6.592;2022-11-27T07:38:03;6.60;;;3.27;;
30127;SDS011;16942;53.196;6.592;2022-11-27T07:40:28;12.17;;;3.47;;
30127;SDS011;16942;53.196;6.592;2022-11-27T07:42:54;9.07;;;3.47;;
30127;SDS011;16942;53.196;6.592;2022-11-27T07:45:23;11.77;;;3.80;;
30127;SDS011;16942;53.196;6.592;2022-11-27T07:47:49;9.37;;;3.70;;
30127;SDS011;16942;53.196;6.592;2022-11-27T07:50:15;7.80;;;3.40;;
30127;SDS011;16942;53.196;6.592;2022-11-27T07:52:41;9.27;;;3.77;;
30127;SDS011;16942;53.196;6.592;2022-11-27T07:55:07;9.90;;;3.63;;
30127;SDS011;16942;53.196;6.592;2022-11-27T07:57:33;10.20;;;3.50;;
30127;SDS011;16942;53.196;6.592;2022-11-27T07:59:59;11.63;;;3.70;;
30127;SDS011;16942;53.196;6.592;2022-11-27T08:02:25;8.80;;;4.03;;
30127;SDS011;16942;53.196;6.592;2022-11-27T08:04:51;8.90;;;3.70;;
30127;SDS011;16942;53.196;6.592;2022-11-27T08:07:17;9.60;;;3.37;;
30127;SDS011;16942;53.196;6.592;2022-11-27T08:09:43;8.03;;;3.53;;
30127;SDS011;16942;53.196;6.592;2022-11-27T08:12:09;9.90;;;3.70;;
30127;SDS011;16942;53.196;6.592;2022-11-27T08:14:35;14.83;;;4.20;;
30127;SDS011;16942;53.196;6.592;2022-11-27T08:17:01;9.70;;;3.67;;
30127;SDS011;16942;53.196;6.592;2022-11-27T08:19:27;10.20;;;4.07;;
30127;SDS011;16942;53.196;6.592;2022-11-27T08:21:53;10.83;;;4.27;;
30127;SDS011;16942;53.196;6.592;2022-11-27T08:24:21;18.43;;;4.60;;
30127;SDS011;16942;53.196;6.592;2022-11-27T08:26:47;10.00;;;5.00;;
30127;SDS011;16942;53.196;6.592;2022-11-27T08:29:13;11.03;;;4.60;;
30127;SDS011;16942;53.196;6.592;2022-11-27T08:31:39;9.97;;;4.30;;
30127;SDS011;16942;53.196;6.592;2022-11-27T08:34:05;10.83;;;4.10;;
30127;SDS011;16942;53.196;6.592;2022-11-27T08:36:31;7.57;;;3.80;;
30127;SDS011;16942;53.196;6.592;2022-11-27T08:38:57;13.87;;;4.20;;
30127;SDS011;16942;53.196;6.592;2022-11-27T08:41:23;8.43;;;3.80;;
30127;SDS011;16942;53.196;6.592;2022-11-27T08:43:49;12.80;;;4.63;;
30127;SDS011;16942;53.196;6.592;2022-11-27T08:46:15;8.03;;;3.80;;
30127;SDS011;16942;53.196;6.592;2022-11-27T08:48:41;10.10;;;4.10;;
30127;SDS011;16942;53.196;6.592;2022-11-27T08:51:11;12.27;;;4.20;;
30127;SDS011;16942;53.196;6.592;2022-11-27T08:53:37;10.33;;;4.13;;
30127;SDS011;16942;53.196;6.592;2022-11-27T08:56:07;10.33;;;4.73;;
30127;SDS011;16942;53.196;6.592;2022-11-27T08:58:34;12.03;;;5.00;;
30127;SDS011;16942;53.196;6.592;2022-11-27T09:01:05;17.80;;;5.67;;
30127;SDS011;16942;53.196;6.592;2022-11-27T09:03:31;9.67;;;4.77;;
30127;SDS011;16942;53.196;6.592;2022-11-27T09:05:57;10.30;;;4.50;;
30127;SDS011;16942;53.196;6.592;2022-11-27T09:08:23;10.53;;;4.07;;
30127;SDS011;16942;53.196;6.592;2022-11-27T09:10:49;10.60;;;4.87;;
30127;SDS011;16942;53.196;6.592;2022-11-27T09:13:15;11.83;;;4.50;;
30127;SDS011;16942;53.196;6.592;2022-11-27T09:15:41;12.13;;;4.30;;
30127;SDS011;16942;53.196;6.592;2022-11-27T09:18:07;14.40;;;4.57;;
30127;SDS011;16942;53.196;6.592;2022-11-27T09:20:33;11.37;;;4.40;;
30127;SDS011;16942;53.196;6.592;2022-11-27T09:22:59;12.07;;;5.20;;
30127;SDS011;16942;53.196;6.592;2022-11-27T09:25:26;9.47;;;4.20;;
30127;SDS011;16942;53.196;6.592;2022-11-27T09:27:52;12.03;;;4.50;;
30127;SDS011;16942;53.196;6.592;2022-11-27T09:30:18;8.60;;;4.57;;
30127;SDS011;16942;53.196;6.592;2022-11-27T09:32:44;9.80;;;4.90;;
30127;SDS011;16942;53.196;6.592;2022-11-27T09:35:10;10.13;;;4.73;;
30127;SDS011;16942;53.196;6.592;2022-11-27T09:37:36;12.20;;;4.43;;
30127;SDS011;16942;53.196;6.592;2022-11-27T09:40:02;11.03;;;5.13;;
30127;SDS011;16942;53.196;6.592;2022-11-27T09:42:37;10.67;;;5.17;;
30127;SDS011;16942;53.196;6.592;2022-11-27T09:45:04;13.90;;;5.20;;
30127;SDS011;16942;53.196;6.592;2022-11-27T09:47:40;13.63;;;5.90;;
30127;SDS011;16942;53.196;6.592;2022-11-27T09:50:13;13.73;;;5.87;;
30127;SDS011;16942;53.196;6.592;2022-11-27T09:58:04;13.03;;;5.33;;
30127;SDS011;16942;53.196;6.592;2022-11-27T10:00:30;9.23;;;4.87;;
30127;SDS011;16942;53.196;6.592;2022-11-27T10:02:56;9.97;;;5.23;;
30127;SDS011;16942;53.196;6.592;2022-11-27T10:05:25;12.30;;;5.37;;
30127;SDS011;16942;53.196;6.592;2022-11-27T10:08:02;13.40;;;5.27;;
30127;SDS011;16942;53.196;6.592;2022-11-27T10:13:23;14.83;;;5.23;;
30127;SDS011;16942;53.196;6.592;2022-11-27T10:15:54;12.37;;;5.70;;
30127;SDS011;16942;53.196;6.592;2022-11-27T10:21:19;10.03;;;5.37;;
30127;SDS011;16942;53.196;6.592;2022-11-27T10:26:28;16.03;;;5.90;;
30127;SDS011;16942;53.196;6.592;2022-11-27T10:31:42;10.23;;;5.23;;
30127;SDS011;16942;53.196;6.592;2022-11-27T10:36:54;14.30;;;6.30;;
30127;SDS011;16942;53.196;6.592;2022-11-27T10:39:30;13.07;;;5.97;;
30127;SDS011;16942;53.196;6.592;2022-11-27T10:44:34;12.67;;;5.70;;
30127;SDS011;16942;53.196;6.592;2022-11-27T10:47:01;12.10;;;4.90;;
30127;SDS011;16942;53.196;6.592;2022-11-27T10:49:28;13.87;;;5.80;;
30127;SDS011;16942;53.196;6.592;2022-11-27T10:51:55;16.97;;;6.00;;
30127;SDS011;16942;53.196;6.592;2022-11-27T10:54:42;12.67;;;4.90;;
30127;SDS011;16942;53.196;6.592;2022-11-27T10:57:11;15.87;;;5.93;;
30127;SDS011;16942;53.196;6.592;2022-11-27T10:59:43;12.27;;;5.43;;
30127;SDS011;16942;53.196;6.592;2022-11-27T11:05:21;8.13;;;5.03;;
30127;SDS011;16942;53.196;6.592;2022-11-27T11:10:24;14.90;;;5.67;;
30127;SDS011;16942;53.196;6.592;2022-11-27T11:13:13;13.63;;;6.10;;
30127;SDS011;16942;53.196;6.592;2022-11-27T11:15:50;11.20;;;5.07;;
30127;SDS011;16942;53.196;6.592;2022-11-27T11:18:27;10.27;;;4.60;;
30127;SDS011;16942;53.196;6.592;2022-11-27T11:20:55;12.00;;;5.53;;
30127;SDS011;16942;53.196;6.592;2022-11-27T11:23:26;11.17;;;5.17;;
30127;SDS011;16942;53.196;6.592;2022-11-27T11:25:55;8.97;;;5.07;;
30127;SDS011;16942;53.196;6.592;2022-11-27T11:28:22;13.93;;;5.97;;
30127;SDS011;16942;53.196;6.592;2022-11-27T11:31:02;13.90;;;5.47;;
30127;SDS011;16942;53.196;6.592;2022-11-27T11:33:30;14.10;;;5.90;;
30127;SDS011;16942;53.196;6.592;2022-11-27T11:36:06;13.73;;;5.63;;
30127;SDS011;16942;53.196;6.592;2022-11-27T11:38:33;14.13;;;5.67;;
30127;SDS011;16942;53.196;6.592;2022-11-27T11:41:04;11.37;;;5.20;;
30127;SDS011;16942;53.196;6.592;2022-11-27T11:43:31;13.13;;;5.70;;
30127;SDS011;16942;53.196;6.592;2022-11-27T11:46:03;15.27;;;5.93;;
30127;SDS011;16942;53.196;6.592;2022-11-27T11:48:31;14.53;;;5.50;;
30127;SDS011;16942;53.196;6.592;2022-11-27T11:51:01;14.60;;;6.17;;
30127;SDS011;16942;53.196;6.592;2022-11-27T11:53:37;11.20;;;5.70;;
30127;SDS011;16942;53.196;6.592;2022-11-27T12:01:23;16.43;;;5.40;;
30127;SDS011;16942;53.196;6.592;2022-11-27T12:04:40;12.63;;;5.43;;
30127;SDS011;16942;53.196;6.592;2022-11-27T12:06:45;16.20;;;5.73;;
30127;SDS011;16942;53.196;6.592;2022-11-27T12:12:01;13.90;;;5.03;;
30127;SDS011;16942;53.196;6.592;2022-11-27T12:14:39;11.70;;;5.20;;
30127;SDS011;16942;53.196;6.592;2022-11-27T12:17:26;15.33;;;5.73;;
30127;SDS011;16942;53.196;6.592;2022-11-27T12:20:04;11.57;;;5.10;;
30127;SDS011;16942;53.196;6.592;2022-11-27T12:22:36;9.40;;;5.00;;
30127;SDS011;16942;53.196;6.592;2022-11-27T12:30:16;9.60;;;5.63;;
30127;SDS011;16942;53.196;6.592;2022-11-27T12:35:29;13.43;;;5.47;;
30127;SDS011;16942;53.196;6.592;2022-11-27T12:40:29;9.77;;;4.97;;
30127;SDS011;16942;53.196;6.592;2022-11-27T12:45:31;10.23;;;5.67;;
30127;SDS011;16942;53.196;6.592;2022-11-27T12:48:00;16.63;;;5.83;;
30127;SDS011;16942;53.196;6.592;2022-11-27T12:53:01;12.07;;;5.57;;
30127;SDS011;16942;53.196;6.592;2022-11-27T12:55:29;9.00;;;5.37;;
30127;SDS011;16942;53.196;6.592;2022-11-27T12:58:05;12.03;;;5.53;;
30127;SDS011;16942;53.196;6.592;2022-11-27T13:00:34;12.10;;;5.67;;
30127;SDS011;16942;53.196;6.592;2022-11-27T13:03:12;17.73;;;5.47;;
30127;SDS011;16942;53.196;6.592;2022-11-27T13:10:51;8.73;;;5.07;;
30127;SDS011;16942;53.196;6.592;2022-11-27T13:13:24;11.07;;;4.90;;
30127;SDS011;16942;53.196;6.592;2022-11-27T13:15:56;9.77;;;5.50;;
30127;SDS011;16942;53.196;6.592;2022-11-27T13:18:37;11.97;;;5.53;;
30127;SDS011;16942;53.196;6.592;2022-11-27T13:21:08;9.00;;;5.07;;
30127;SDS011;16942;53.196;6.592;2022-11-27T13:23:35;8.67;;;5.10;;
30127;SDS011;16942;53.196;6.592;2022-11-27T13:26:02;10.07;;;5.60;;
30127;SDS011;16942;53.196;6.592;2022-11-27T13:30:56;9.77;;;5.17;;
30127;SDS011;16942;53.196;6.592;2022-11-27T13:33:27;13.67;;;5.90;;
30127;SDS011;16942;53.196;6.592;2022-11-27T13:35:57;13.57;;;5.60;;
30127;SDS011;16942;53.196;6.592;2022-11-27T13:38:24;10.90;;;5.33;;
30127;SDS011;16942;53.196;6.592;2022-11-27T13:40:52;9.70;;;5.17;;
30127;SDS011;16942;53.196;6.592;2022-11-27T13:43:21;11.67;;;5.53;;
30127;SDS011;16942;53.196;6.592;2022-11-27T13:45:59;11.67;;;5.43;;
30127;SDS011;16942;53.196;6.592;2022-11-27T13:48:28;8.83;;;4.80;;
30127;SDS011;16942;53.196;6.592;2022-11-27T13:50:55;10.97;;;5.17;;
30127;SDS011;16942;53.196;6.592;2022-11-27T13:53:29;9.23;;;5.10;;
30127;SDS011;16942;53.196;6.592;2022-11-27T13:55:55;11.13;;;5.33;;
30127;SDS011;16942;53.196;6.592;2022-11-27T13:58:29;13.63;;;5.50;;
30127;SDS011;16942;53.196;6.592;2022-11-27T14:00:55;10.53;;;5.33;;
30127;SDS011;16942;53.196;6.592;2022-11-27T14:03:28;8.27;;;5.60;;
30127;SDS011;16942;53.196;6.592;2022-11-27T14:05:55;11.60;;;5.20;;
30127;SDS011;16942;53.196;6.592;2022-11-27T14:08:32;12.23;;;5.57;;
30127;SDS011;16942;53.196;6.592;2022-11-27T14:10:59;11.33;;;5.13;;
30127;SDS011;16942;53.196;6.592;2022-11-27T14:13:47;13.10;;;5.33;;
30127;SDS011;16942;53.196;6.592;2022-11-27T14:18:48;9.87;;;5.10;;
30127;SDS011;16942;53.196;6.592;2022-11-27T14:21:22;14.90;;;6.27;;
30127;SDS011;16942;53.196;6.592;2022-11-27T14:23:49;12.33;;;5.67;;
30127;SDS011;16942;53.196;6.592;2022-11-27T14:26:19;12.47;;;5.93;;
30127;SDS011;16942;53.196;6.592;2022-11-27T14:28:53;10.43;;;5.23;;
30127;SDS011;16942;53.196;6.592;2022-11-27T14:31:32;13.10;;;5.60;;
30127;SDS011;16942;53.196;6.592;2022-11-27T14:33:59;11.70;;;6.23;;
30127;SDS011;16942;53.196;6.592;2022-11-27T14:36:29;11.27;;;5.53;;
30127;SDS011;16942;53.196;6.592;2022-11-27T14:38:56;10.00;;;5.17;;
30127;SDS011;16942;53.196;6.592;2022-11-27T14:41:23;13.40;;;5.83;;
30127;SDS011;16942;53.196;6.592;2022-11-27T14:43:58;13.57;;;5.87;;
30127;SDS011;16942;53.196;6.592;2022-11-27T14:46:25;9.53;;;4.83;;
30127;SDS011;16942;53.196;6.592;2022-11-27T14:48:52;12.37;;;5.17;;
30127;SDS011;16942;53.196;6.592;2022-11-27T14:51:22;13.77;;;5.87;;
30127;SDS011;16942;53.196;6.592;2022-11-27T14:53:49;14.53;;;5.70;;
30127;SDS011;16942;53.196;6.592;2022-11-27T14:56:16;10.93;;;5.87;;
30127;SDS011;16942;53.196;6.592;2022-11-27T14:58:46;14.03;;;5.53;;
30127;SDS011;16942;53.196;6.592;2022-11-27T15:01:26;11.60;;;5.70;;
30127;SDS011;16942;53.196;6.592;2022-11-27T15:04:06;10.33;;;5.90;;
30127;SDS011;16942;53.196;6.592;2022-11-27T15:06:49;16.37;;;5.80;;
30127;SDS011;16942;53.196;6.592;2022-11-27T15:09:19;11.57;;;5.80;;
30127;SDS011;16942;53.196;6.592;2022-11-27T15:11:53;15.53;;;5.90;;
30127;SDS011;16942;53.196;6.592;2022-11-27T15:14:19;12.40;;;6.50;;
30127;SDS011;16942;53.196;6.592;2022-11-27T15:16:47;13.40;;;6.53;;
30127;SDS011;16942;53.196;6.592;2022-11-27T15:19:34;14.73;;;6.30;;
30127;SDS011;16942;53.196;6.592;2022-11-27T15:22:00;13.17;;;6.47;;
30127;SDS011;16942;53.196;6.592;2022-11-27T15:24:31;14.70;;;7.10;;
30127;SDS011;16942;53.196;6.592;2022-11-27T15:29:40;14.27;;;6.73;;
30127;SDS011;16942;53.196;6.592;2022-11-27T15:32:16;11.23;;;5.83;;
30127;SDS011;16942;53.196;6.592;2022-11-27T15:34:43;12.27;;;6.53;;
30127;SDS011;16942;53.196;6.592;2022-11-27T15:37:28;19.90;;;7.43;;
30127;SDS011;16942;53.196;6.592;2022-11-27T15:39:55;14.63;;;7.07;;
30127;SDS011;16942;53.196;6.592;2022-11-27T15:42:22;18.00;;;7.33;;
30127;SDS011;16942;53.196;6.592;2022-11-27T15:44:49;11.87;;;6.67;;
30127;SDS011;16942;53.196;6.592;2022-11-27T15:47:27;13.10;;;7.00;;
30127;SDS011;16942;53.196;6.592;2022-11-27T15:49:53;12.83;;;7.40;;
30127;SDS011;16942;53.196;6.592;2022-11-27T15:52:20;13.53;;;6.67;;
30127;SDS011;16942;53.196;6.592;2022-11-27T15:54:46;11.97;;;6.93;;
30127;SDS011;16942;53.196;6.592;2022-11-27T15:57:12;13.07;;;7.10;;
30127;SDS011;16942;53.196;6.592;2022-11-27T15:59:38;13.20;;;7.33;;
30127;SDS011;16942;53.196;6.592;2022-11-27T16:02:04;13.97;;;7.20;;
30127;SDS011;16942;53.196;6.592;2022-11-27T16:04:30;16.93;;;7.23;;
30127;SDS011;16942;53.196;6.592;2022-11-27T16:06:56;12.90;;;8.07;;
30127;SDS011;16942;53.196;6.592;2022-11-27T16:09:22;13.47;;;6.93;;
30127;SDS011;16942;53.196;6.592;2022-11-27T16:11:48;15.00;;;7.47;;
30127;SDS011;16942;53.196;6.592;2022-11-27T16:14:14;11.87;;;7.50;;
30127;SDS011;16942;53.196;6.592;2022-11-27T16:16:40;17.77;;;8.57;;